Time,TemperatureF,DewpointF,PressureIn,WindDirection,WindDirectionDegrees,WindSpeedMPH,WindSpeedGustMPH,Humidity,HourlyPrecipIn,Conditions,Clouds,dailyrainin,SoftwareType,DateUTC
2013-03-10 00:02:00,31.9,18.4,30.38,SW,221,11.0,12.0,57,0.00,,SKC,0.00,VWS V12.07,2013-03-10 08:02:00,
2013-03-10 00:12:00,31.7,18.6,30.37,SW,216,7.0,16.0,58,0.00,,SKC,0.00,VWS V12.07,2013-03-10 08:12:00,
2013-03-10 00:22:00,31.9,18.8,30.37,SW,217,11.0,16.0,58,0.00,,SKC,0.00,VWS V12.07,2013-03-10 08:22:00,
2013-03-10 00:32:00,32.0,18.9,30.38,SW,225,6.0,13.0,58,0.00,,SKC,0.00,VWS V12.07,2013-03-10 08:32:00,
2013-03-10 00:42:00,31.9,19.2,30.38,SW,224,9.0,13.0,59,0.00,,SKC,0.00,VWS V12.07,2013-03-10 08:42:00,
2013-03-10 00:52:00,31.7,19.0,30.36,SW,223,14.0,14.0,59,0.00,,SKC,0.00,VWS V12.07,2013-03-10 08:52:00,
2013-03-10 01:02:00,31.7,19.4,30.37,SW,217,15.0,16.0,60,0.00,,SKC,0.00,VWS V12.07,2013-03-10 09:02:00,
2013-03-10 01:12:00,31.6,19.7,30.37,SW,214,18.0,18.0,61,0.00,,SKC,0.00,VWS V12.07,2013-03-10 09:12:00,
2013-03-10 01:22:00,31.4,19.5,30.35,SSW,212,6.0,18.0,61,0.00,,SKC,0.00,VWS V12.07,2013-03-10 09:22:00,
2013-03-10 01:32:00,31.1,19.2,30.37,SW,227,6.0,11.0,61,0.00,,SKC,0.00,VWS V12.07,2013-03-10 09:32:00,
2013-03-10 01:42:00,30.9,19.4,30.37,SW,223,8.0,16.0,62,0.00,,SKC,0.00,VWS V12.07,2013-03-10 09:42:00,
2013-03-10 01:52:00,30.9,19.4,30.35,SSW,212,18.0,19.0,62,0.00,,SKC,0.00,VWS V12.07,2013-03-10 09:52:00,
2013-03-10 03:02:00,31.3,19.8,30.35,SW,223,19.0,23.0,62,0.00,,SKC,0.00,VWS V12.07,2013-03-10 10:02:00,
2013-03-10 03:12:00,31.3,19.8,30.36,SW,219,13.0,23.0,62,0.00,,SKC,0.00,VWS V12.07,2013-03-10 10:12:00,
2013-03-10 03:22:00,31.0,19.5,30.35,SW,219,8.0,23.0,62,0.00,,SKC,0.00,VWS V12.07,2013-03-10 10:22:00,
2013-03-10 03:32:00,31.0,20.3,30.37,SW,221,7.0,18.0,64,0.00,,SKC,0.00,VWS V12.07,2013-03-10 10:32:00,
2013-03-10 03:42:00,31.0,20.3,30.35,SSW,211,16.0,18.0,64,0.00,,SKC,0.00,VWS V12.07,2013-03-10 10:42:00,
2013-03-10 03:52:00,31.0,20.3,30.36,SW,218,9.0,18.0,64,0.00,,SKC,0.00,VWS V12.07,2013-03-10 10:52:00,
2013-03-10 04:02:00,30.8,20.4,30.35,SW,222,11.0,13.0,65,0.00,,SKC,0.00,VWS V12.07,2013-03-10 11:02:00,
2013-03-10 04:12:00,30.7,20.3,30.36,SW,214,16.0,18.0,65,0.00,,SKC,0.00,VWS V12.07,2013-03-10 11:12:00,
2013-03-10 04:22:00,30.7,20.7,30.36,SW,226,15.0,19.0,66,0.00,,SKC,0.00,VWS V12.07,2013-03-10 11:22:00,
2013-03-10 04:32:00,30.6,21.0,30.36,SW,217,13.0,18.0,67,0.00,,SKC,0.00,VWS V12.07,2013-03-10 11:32:00,
2013-03-10 04:42:00,30.1,20.5,30.36,SSW,213,12.0,20.0,67,0.00,,SKC,0.00,VWS V12.07,2013-03-10 11:42:00,
2013-03-10 04:52:00,29.9,20.3,30.36,SW,217,14.0,21.0,67,0.00,,SKC,0.00,VWS V12.07,2013-03-10 11:52:00,
2013-03-10 05:02:00,29.7,20.5,30.36,SW,217,12.0,18.0,68,0.00,,SKC,0.00,VWS V12.07,2013-03-10 12:02:00,
2013-03-10 05:12:00,29.6,20.4,30.36,SW,215,9.0,22.0,68,0.00,,SKC,0.00,VWS V12.07,2013-03-10 12:12:00,
2013-03-10 05:22:00,29.5,20.3,30.36,SW,214,9.0,22.0,68,0.00,,SKC,0.00,VWS V12.07,2013-03-10 12:22:00,
2013-03-10 05:32:00,29.6,20.4,30.36,SSW,210,14.0,21.0,68,0.00,,SKC,0.00,VWS V12.07,2013-03-10 12:32:00,
2013-03-10 05:42:00,29.5,20.3,30.37,SW,216,17.0,23.0,68,0.00,,SKC,0.00,VWS V12.07,2013-03-10 12:42:00,
2013-03-10 05:52:00,29.9,21.0,30.37,SSW,211,22.0,24.0,69,0.00,,SKC,0.00,VWS V12.07,2013-03-10 12:52:00,
2013-03-10 06:02:00,30.0,21.1,30.36,SSW,209,17.0,22.0,69,0.00,,SKC,0.00,VWS V12.07,2013-03-10 13:02:00,
2013-03-10 06:12:00,29.7,20.8,30.36,SSW,209,12.0,24.0,69,0.00,,SKC,0.00,VWS V12.07,2013-03-10 13:12:00,
2013-03-10 06:22:00,29.4,20.2,30.38,SSW,203,8.0,24.0,68,0.00,,SKC,0.00,VWS V12.07,2013-03-10 13:22:00,
2013-03-10 06:32:00,29.2,20.6,30.36,SW,215,15.0,19.0,70,0.00,,SKC,0.00,VWS V12.07,2013-03-10 13:32:00,
2013-03-10 06:42:00,29.4,20.5,30.37,SW,219,14.0,22.0,69,0.00,,SKC,0.00,VWS V12.07,2013-03-10 13:42:00,
2013-03-10 06:52:00,29.2,20.3,30.38,SSW,211,11.0,22.0,69,0.00,,SKC,0.00,VWS V12.07,2013-03-10 13:52:00,
2013-03-10 07:02:00,28.7,19.8,30.38,SSW,211,13.0,21.0,69,0.00,,SKC,0.00,VWS V12.07,2013-03-10 14:02:00,
2013-03-10 07:12:00,28.3,19.8,30.38,SSW,209,13.0,21.0,70,0.00,,SKC,0.00,VWS V12.07,2013-03-10 14:12:00,
2013-03-10 07:22:00,28.2,19.7,30.37,SW,214,9.0,21.0,70,0.00,,SKC,0.00,VWS V12.07,2013-03-10 14:22:00,
2013-03-10 07:32:00,28.2,20.0,30.37,SSW,207,9.0,23.0,71,0.00,,SKC,0.00,VWS V12.07,2013-03-10 14:32:00,
2013-03-10 07:42:00,28.4,20.2,30.37,SSW,208,15.0,23.0,71,0.00,,SKC,0.00,VWS V12.07,2013-03-10 14:42:00,
2013-03-10 07:52:00,28.5,20.0,30.38,SW,219,11.0,23.0,70,0.00,,SKC,0.00,VWS V12.07,2013-03-10 14:52:00,
2013-03-10 08:02:00,28.8,20.3,30.37,SSW,207,13.0,24.0,70,0.00,,SKC,0.00,VWS V12.07,2013-03-10 15:02:00,
2013-03-10 08:12:00,28.9,20.4,30.36,SW,217,12.0,24.0,70,0.00,,SKC,0.00,VWS V12.07,2013-03-10 15:12:00,
2013-03-10 08:22:00,29.2,20.3,30.37,SSW,207,10.0,24.0,69,0.00,,SKC,0.00,VWS V12.07,2013-03-10 15:22:00,
2013-03-10 08:32:00,29.8,20.5,30.37,SSW,207,14.0,20.0,68,0.00,,SKC,0.00,VWS V12.07,2013-03-10 15:32:00,
2013-03-10 08:42:00,30.1,20.8,30.37,SSW,207,16.0,22.0,68,0.00,,SKC,0.00,VWS V12.07,2013-03-10 15:42:00,
2013-03-10 08:52:00,30.8,21.1,30.36,SSW,207,15.0,23.0,67,0.00,,SKC,0.00,VWS V12.07,2013-03-10 15:52:00,
2013-03-10 09:02:00,31.6,21.2,30.37,SSW,208,8.0,19.0,65,0.00,,SKC,0.00,VWS V12.07,2013-03-10 16:02:00,
2013-03-10 09:12:00,32.4,21.6,30.35,SSW,206,15.0,23.0,64,0.00,,SKC,0.00,VWS V12.07,2013-03-10 16:12:00,
2013-03-10 09:22:00,33.4,21.8,30.36,SSW,199,16.0,23.0,62,0.00,,SKC,0.00,VWS V12.07,2013-03-10 16:22:00,
2013-03-10 09:32:00,34.3,22.3,30.36,SW,214,14.0,22.0,61,0.00,,SKC,0.00,VWS V12.07,2013-03-10 16:32:00,
2013-03-10 09:42:00,34.5,21.7,30.37,SSW,205,18.0,23.0,59,0.00,,SKC,0.00,VWS V12.07,2013-03-10 16:42:00,
2013-03-10 09:52:00,35.1,21.8,30.36,SW,216,11.0,24.0,58,0.00,,SKC,0.00,VWS V12.07,2013-03-10 16:52:00,
2013-03-10 10:02:00,35.7,22.4,30.36,SSW,208,12.0,21.0,58,0.00,,SKC,0.00,VWS V12.07,2013-03-10 17:02:00,
2013-03-10 10:12:00,36.0,21.8,30.36,SSW,209,16.0,22.0,56,0.00,,SKC,0.00,VWS V12.07,2013-03-10 17:12:00,
2013-03-10 10:22:00,36.7,21.2,30.36,SW,217,10.0,25.0,53,0.00,,SKC,0.00,VWS V12.07,2013-03-10 17:22:00,
2013-03-10 10:32:00,37.2,21.7,30.36,SSW,204,15.0,22.0,53,0.00,,SKC,0.00,VWS V12.07,2013-03-10 17:32:00,
2013-03-10 10:42:00,38.3,21.8,30.36,SW,220,11.0,22.0,51,0.00,,SKC,0.00,VWS V12.07,2013-03-10 17:42:00,
2013-03-10 10:52:00,38.7,20.7,30.35,SSW,209,15.0,27.0,48,0.00,,SKC,0.00,VWS V12.07,2013-03-10 17:52:00,
2013-03-10 11:02:00,39.8,21.7,30.36,SSW,205,12.0,17.0,48,0.00,,SKC,0.00,VWS V12.07,2013-03-10 18:02:00,
2013-03-10 11:12:00,41.1,19.2,30.36,SSW,208,21.0,24.0,41,0.00,,SKC,0.00,VWS V12.07,2013-03-10 18:12:00,
2013-03-10 11:22:00,42.0,17.6,30.35,SSW,212,18.0,25.0,37,0.00,,SKC,0.00,VWS V12.07,2013-03-10 18:22:00,
2013-03-10 11:32:00,42.9,17.8,30.36,SSW,206,6.0,17.0,36,0.00,,SKC,0.00,VWS V12.07,2013-03-10 18:32:00,
2013-03-10 11:42:00,43.9,18.0,30.35,SW,217,6.0,20.0,35,0.00,,SKC,0.00,VWS V12.07,2013-03-10 18:42:00,
2013-03-10 11:52:00,44.9,16.1,30.35,SW,227,8.0,20.0,31,0.00,,SKC,0.00,VWS V12.07,2013-03-10 18:52:00,
2013-03-10 12:02:00,45.5,16.6,30.35,SSW,195,9.0,13.0,31,0.00,,SKC,0.00,VWS V12.07,2013-03-10 19:02:00,
2013-03-10 12:12:00,46.9,15.5,30.34,SSW,199,12.0,15.0,28,0.00,,SKC,0.00,VWS V12.07,2013-03-10 19:12:00,
2013-03-10 12:22:00,48.3,14.1,30.34,SW,233,8.0,17.0,25,0.00,,SKC,0.00,VWS V12.07,2013-03-10 19:22:00,
2013-03-10 12:32:00,49.1,13.9,30.33,SSW,196,9.0,12.0,24,0.00,,SKC,0.00,VWS V12.07,2013-03-10 19:32:00,
2013-03-10 12:42:00,50.0,14.6,30.32,SSW,202,6.0,16.0,24,0.00,,SKC,0.00,VWS V12.07,2013-03-10 19:42:00,
2013-03-10 12:52:00,50.7,15.2,30.32,SSW,209,6.0,16.0,24,0.00,,SKC,0.00,VWS V12.07,2013-03-10 19:52:00,
2013-03-10 13:02:00,52.2,15.5,30.33,WSW,246,5.0,8.0,23,0.00,,SKC,0.00,VWS V12.07,2013-03-10 20:02:00,
2013-03-10 13:12:00,52.8,14.0,30.33,SSW,196,12.0,15.0,21,0.00,,SKC,0.00,VWS V12.07,2013-03-10 20:12:00,
2013-03-10 13:22:00,52.9,14.1,30.33,South,190,9.0,15.0,21,0.00,,SKC,0.00,VWS V12.07,2013-03-10 20:22:00,
2013-03-10 13:32:00,53.2,13.2,30.30,SSW,197,7.0,9.0,20,0.00,,SKC,0.00,VWS V12.07,2013-03-10 20:32:00,
2013-03-10 13:42:00,53.7,14.7,30.30,SSW,197,3.0,9.0,21,0.00,,SKC,0.00,VWS V12.07,2013-03-10 20:42:00,
2013-03-10 13:52:00,54.7,15.6,30.31,SSW,209,3.0,9.0,21,0.00,,SKC,0.00,VWS V12.07,2013-03-10 20:52:00,
2013-03-10 14:02:00,55.4,17.2,30.29,South,180,4.0,12.0,22,0.00,,SKC,0.00,VWS V12.07,2013-03-10 21:02:00,
2013-03-10 14:12:00,55.3,18.1,30.29,SSE,152,4.0,12.0,23,0.00,,SKC,0.00,VWS V12.07,2013-03-10 21:12:00,
2013-03-10 14:22:00,55.4,18.2,30.28,ESE,111,5.0,12.0,23,0.00,,SKC,0.00,VWS V12.07,2013-03-10 21:22:00,
2013-03-10 14:32:00,55.6,19.4,30.29,NE,40,2.0,6.0,24,0.00,,SKC,0.00,VWS V12.07,2013-03-10 21:32:00,
2013-03-10 14:42:00,56.4,20.1,30.27,NE,39,4.0,7.0,24,0.00,,SKC,0.00,VWS V12.07,2013-03-10 21:42:00,
2013-03-10 14:52:00,56.9,19.5,30.28,NE,34,9.0,12.0,23,0.00,,SKC,0.00,VWS V12.07,2013-03-10 21:52:00,
2013-03-10 15:02:00,56.7,20.3,30.28,NNE,26,9.0,12.0,24,0.00,,SKC,0.00,VWS V12.07,2013-03-10 22:02:00,
2013-03-10 15:12:00,56.9,20.5,30.27,NNE,32,9.0,15.0,24,0.00,,SKC,0.00,VWS V12.07,2013-03-10 22:12:00,
2013-03-10 15:22:00,56.6,17.1,30.28,North,1,6.0,20.0,21,0.00,,SKC,0.00,VWS V12.07,2013-03-10 22:22:00,
2013-03-10 15:32:00,56.8,19.4,30.29,North,349,9.0,14.0,23,0.00,,SKC,0.00,VWS V12.07,2013-03-10 22:32:00,
2013-03-10 15:42:00,56.3,24.5,30.29,NNE,13,13.0,16.0,29,0.00,,SKC,0.00,VWS V12.07,2013-03-10 22:42:00,
2013-03-10 15:52:00,55.8,25.6,30.28,NNW,339,9.0,18.0,31,0.00,,SKC,0.00,VWS V12.07,2013-03-10 22:52:00,
2013-03-10 16:02:00,56.1,27.4,30.30,NNW,341,7.0,10.0,33,0.00,,SKC,0.00,VWS V12.07,2013-03-10 23:02:00,
2013-03-10 16:12:00,56.2,28.9,30.28,North,358,9.0,12.0,35,0.00,,SKC,0.00,VWS V12.07,2013-03-10 23:12:00,
2013-03-10 16:22:00,56.1,29.5,30.28,NNE,25,9.0,12.0,36,0.00,,SKC,0.00,VWS V12.07,2013-03-10 23:22:00,
2013-03-10 16:32:00,56.2,30.3,30.29,NNW,334,3.0,5.0,37,0.00,,SKC,0.00,VWS V12.07,2013-03-10 23:32:00,
2013-03-10 16:42:00,56.3,31.0,30.28,ENE,62,4.0,11.0,38,0.00,,SKC,0.00,VWS V12.07,2013-03-10 23:42:00,
2013-03-10 16:52:00,56.6,32.6,30.29,North,1,8.0,14.0,40,0.00,,SKC,0.00,VWS V12.07,2013-03-10 23:52:00,
2013-03-10 17:02:00,55.6,32.9,30.28,North,8,4.0,10.0,42,0.00,,SKC,0.00,VWS V12.07,2013-03-11 00:02:00,
2013-03-10 17:12:00,54.6,34.2,30.28,NNE,12,5.0,16.0,46,0.00,,SKC,0.00,VWS V12.07,2013-03-11 00:12:00,
2013-03-10 17:22:00,53.8,35.1,30.28,North,9,6.0,16.0,49,0.00,,SKC,0.00,VWS V12.07,2013-03-11 00:22:00,
2013-03-10 17:32:00,53.2,34.5,30.26,NNE,14,15.0,20.0,49,0.00,,SKC,0.00,VWS V12.07,2013-03-11 00:32:00,
2013-03-10 17:52:00,51.3,34.3,30.28,North,355,12.0,23.0,52,0.00,,SKC,0.00,VWS V12.07,2013-03-11 00:52:00,
2013-03-10 18:02:00,50.6,34.6,30.28,North,6,7.0,9.0,54,0.00,,SKC,0.00,VWS V12.07,2013-03-11 01:02:00,
2013-03-10 18:12:00,50.2,34.2,30.28,NE,34,11.0,15.0,54,0.00,,SKC,0.00,VWS V12.07,2013-03-11 01:12:00,
2013-03-10 18:22:00,49.8,33.8,30.29,NNE,31,0.0,15.0,54,0.00,,SKC,0.00,VWS V12.07,2013-03-11 01:22:00,
2013-03-10 18:32:00,49.6,33.7,30.29,NNE,31,4.0,5.0,54,0.00,,SKC,0.00,VWS V12.07,2013-03-11 01:32:00,
2013-03-10 18:42:00,49.0,33.5,30.28,NE,51,4.0,7.0,55,0.00,,SKC,0.00,VWS V12.07,2013-03-11 01:42:00,
2013-03-10 18:52:00,48.4,33.4,30.28,ENE,61,5.0,9.0,56,0.00,,SKC,0.00,VWS V12.07,2013-03-11 01:52:00,
2013-03-10 19:02:00,48.1,33.6,30.29,ENE,62,5.0,7.0,57,0.00,,SKC,0.00,VWS V12.07,2013-03-11 02:02:00,
2013-03-10 19:12:00,47.5,33.5,30.30,ENE,75,4.0,8.0,58,0.00,,SKC,0.00,VWS V12.07,2013-03-11 02:12:00,
2013-03-10 19:22:00,47.3,33.7,30.29,East,96,9.0,9.0,59,0.00,,SKC,0.00,VWS V12.07,2013-03-11 02:22:00,
2013-03-10 19:32:00,47.1,33.5,30.30,East,96,3.0,5.0,59,0.00,,SKC,0.00,VWS V12.07,2013-03-11 02:32:00,
2013-03-10 19:42:00,47.1,33.9,30.30,East,96,3.0,6.0,60,0.00,,SKC,0.00,VWS V12.07,2013-03-11 02:42:00,
2013-03-10 19:52:00,46.9,33.8,30.29,East,96,4.0,7.0,60,0.00,,SKC,0.00,VWS V12.07,2013-03-11 02:52:00,
2013-03-10 20:02:00,46.8,34.1,30.30,East,96,5.0,6.0,61,0.00,,SKC,0.00,VWS V12.07,2013-03-11 03:02:00,
2013-03-10 20:12:00,46.6,33.9,30.31,East,96,3.0,7.0,61,0.00,,SKC,0.00,VWS V12.07,2013-03-11 03:12:00,
2013-03-10 20:22:00,46.5,33.8,30.30,East,96,4.0,7.0,61,0.00,,SKC,0.00,VWS V12.07,2013-03-11 03:22:00,
2013-03-10 20:32:00,46.5,33.8,30.30,East,96,4.0,7.0,61,0.00,,SKC,0.00,VWS V12.07,2013-03-11 03:32:00,
2013-03-10 20:42:00,46.2,33.9,30.31,East,96,4.0,7.0,62,0.00,,SKC,0.00,VWS V12.07,2013-03-11 03:42:00,
2013-03-10 20:52:00,46.1,33.8,30.31,ESE,103,7.0,7.0,62,0.00,,SKC,0.00,VWS V12.07,2013-03-11 03:52:00,
2013-03-10 21:02:00,45.9,32.4,30.30,SSW,196,7.0,11.0,59,0.00,,SKC,0.00,VWS V12.07,2013-03-11 04:02:00,
2013-03-10 21:12:00,45.5,32.0,30.30,South,184,9.0,14.0,59,0.00,,SKC,0.00,VWS V12.07,2013-03-11 04:12:00,
2013-03-10 21:22:00,44.9,31.9,30.30,SSW,193,4.0,14.0,60,0.00,,SKC,0.00,VWS V12.07,2013-03-11 04:22:00,
2013-03-10 21:32:00,44.4,31.8,30.31,SSW,200,5.0,9.0,61,0.00,,SKC,0.00,VWS V12.07,2013-03-11 04:32:00,
2013-03-10 21:42:00,44.1,32.3,30.30,SSW,206,4.0,12.0,63,0.00,,SKC,0.00,VWS V12.07,2013-03-11 04:42:00,
2013-03-10 21:52:00,43.6,31.9,30.32,SW,214,6.0,12.0,63,0.00,,SKC,0.00,VWS V12.07,2013-03-11 04:52:00,
2013-03-10 22:12:00,43.0,31.7,30.30,SW,224,8.0,11.0,64,0.00,,SKC,0.00,VWS V12.07,2013-03-11 05:12:00,
2013-03-10 22:22:00,42.8,31.9,30.31,SW,225,8.0,12.0,65,0.00,,SKC,0.00,VWS V12.07,2013-03-11 05:22:00,
2013-03-10 22:32:00,42.8,31.9,30.31,SSW,210,7.0,10.0,65,0.00,,SKC,0.00,VWS V12.07,2013-03-11 05:32:00,
2013-03-10 22:42:00,42.7,32.5,30.29,SW,221,7.0,14.0,67,0.00,,SKC,0.00,VWS V12.07,2013-03-11 05:42:00,
2013-03-10 22:52:00,42.4,32.2,30.31,SW,224,9.0,14.0,67,0.00,,SKC,0.00,VWS V12.07,2013-03-11 05:52:00,
2013-03-10 23:02:00,42.1,32.3,30.31,SSW,213,7.0,10.0,68,0.00,,SKC,0.00,VWS V12.07,2013-03-11 06:02:00,
2013-03-10 23:12:00,42.0,32.6,30.31,SSW,208,11.0,16.0,69,0.00,,SKC,0.00,VWS V12.07,2013-03-11 06:12:00,
2013-03-10 23:22:00,42.0,32.9,30.30,SSW,211,7.0,16.0,70,0.00,,SKC,0.00,VWS V12.07,2013-03-11 06:22:00,
2013-03-10 23:32:00,41.8,33.1,30.30,SW,217,7.0,9.0,71,0.00,,SKC,0.00,VWS V12.07,2013-03-11 06:32:00,
2013-03-10 23:42:00,41.4,32.7,30.31,SSW,212,7.0,10.0,71,0.00,,SKC,0.00,VWS V12.07,2013-03-11 06:42:00,
2013-03-10 23:52:00,41.2,32.9,30.30,SSW,210,2.0,10.0,72,0.00,,SKC,0.00,VWS V12.07,2013-03-11 06:52:00,